sensor_id;sensor_type;location;lat;lon;timestamp;pressure;altitude;pressure_sealevel;temperature;humidity
63306;BME280;50735;52.060;1.248;2023-05-28T00:01:12;102036.10;;;10.48;47.42
63306;BME280;50735;52.060;1.248;2023-05-28T00:03:44;102036.94;;;10.49;47.61
63306;BME280;50735;52.060;1.248;2023-05-28T00:06:17;102034.69;;;10.72;47.55
63306;BME280;50735;52.060;1.248;2023-05-28T00:08:48;102031.91;;;10.60;47.98
63306;BME280;50735;52.060;1.248;2023-05-28T00:11:20;102030.44;;;10.29;47.77
63306;BME280;50735;52.060;1.248;2023-05-28T00:13:51;102034.40;;;10.22;47.83
63306;BME280;50735;52.060;1.248;2023-05-28T00:16:24;102032.72;;;10.39;47.69
63306;BME280;50735;52.060;1.248;2023-05-28T00:18:55;102030.41;;;10.36;47.64
63306;BME280;50735;52.060;1.248;2023-05-28T00:21:27;102026.55;;;10.35;47.23
63306;BME280;50735;52.060;1.248;2023-05-28T00:23:58;102024.14;;;10.13;47.33
63306;BME280;50735;52.060;1.248;2023-05-28T00:26:30;102020.76;;;10.36;47.67
63306;BME280;50735;52.060;1.248;2023-05-28T00:29:02;102020.10;;;10.08;47.50
63306;BME280;50735;52.060;1.248;2023-05-28T00:31:35;102021.84;;;10.42;47.84
63306;BME280;50735;52.060;1.248;2023-05-28T00:34:07;102020.88;;;10.15;47.29
63306;BME280;50735;52.060;1.248;2023-05-28T00:36:38;102016.56;;;10.42;47.96
63306;BME280;50735;52.060;1.248;2023-05-28T00:39:10;102012.97;;;10.00;47.37
63306;BME280;50735;52.060;1.248;2023-05-28T00:41:42;102011.51;;;9.97;47.75
63306;BME280;50735;52.060;1.248;2023-05-28T00:44:14;102010.32;;;10.07;47.93
63306;BME280;50735;52.060;1.248;2023-05-28T00:46:45;102012.61;;;9.85;48.06
63306;BME280;50735;52.060;1.248;2023-05-28T00:49:18;102013.29;;;9.98;47.72
63306;BME280;50735;52.060;1.248;2023-05-28T00:51:49;102013.74;;;9.92;47.57
63306;BME280;50735;52.060;1.248;2023-05-28T00:54:22;102012.74;;;10.06;47.67
63306;BME280;50735;52.060;1.248;2023-05-28T00:56:54;102013.34;;;9.60;47.86
63306;BME280;50735;52.060;1.248;2023-05-28T00:59:26;102014.37;;;9.53;48.44
63306;BME280;50735;52.060;1.248;2023-05-28T01:01:59;102011.21;;;9.64;48.08
63306;BME280;50735;52.060;1.248;2023-05-28T01:04:31;102008.57;;;9.43;48.51
63306;BME280;50735;52.060;1.248;2023-05-28T01:07:03;102004.35;;;9.57;48.07
63306;BME280;50735;52.060;1.248;2023-05-28T01:09:36;102008.48;;;9.51;47.83
63306;BME280;50735;52.060;1.248;2023-05-28T01:12:08;102010.30;;;9.66;47.97
63306;BME280;50735;52.060;1.248;2023-05-28T01:14:40;102013.86;;;9.27;48.29
63306;BME280;50735;52.060;1.248;2023-05-28T01:17:12;102013.21;;;9.40;48.16
63306;BME280;50735;52.060;1.248;2023-05-28T01:19:44;102012.73;;;9.51;48.44
63306;BME280;50735;52.060;1.248;2023-05-28T01:22:17;102014.17;;;9.48;48.10
63306;BME280;50735;52.060;1.248;2023-05-28T01:24:49;102015.94;;;9.27;48.57
63306;BME280;50735;52.060;1.248;2023-05-28T01:27:21;102019.69;;;9.37;48.22
63306;BME280;50735;52.060;1.248;2023-05-28T01:29:53;102020.40;;;9.35;48.42
63306;BME280;50735;52.060;1.248;2023-05-28T01:32:25;102015.56;;;9.34;48.49
63306;BME280;50735;52.060;1.248;2023-05-28T01:34:56;102013.47;;;9.32;48.28
63306;BME280;50735;52.060;1.248;2023-05-28T01:37:30;102015.85;;;9.31;48.34
63306;BME280;50735;52.060;1.248;2023-05-28T01:40:02;102016.42;;;9.30;48.32
63306;BME280;50735;52.060;1.248;2023-05-28T01:42:35;102014.48;;;9.28;48.23
63306;BME280;50735;52.060;1.248;2023-05-28T01:45:10;102020.81;;;9.24;48.51
63306;BME280;50735;52.060;1.248;2023-05-28T01:47:43;102015.46;;;9.15;48.36
63306;BME280;50735;52.060;1.248;2023-05-28T01:50:15;102010.55;;;9.11;48.70
63306;BME280;50735;52.060;1.248;2023-05-28T01:52:47;102012.08;;;9.07;49.16
63306;BME280;50735;52.060;1.248;2023-05-28T01:55:18;102006.10;;;9.02;49.45
63306;BME280;50735;52.060;1.248;2023-05-28T01:57:51;102007.49;;;9.01;49.43
63306;BME280;50735;52.060;1.248;2023-05-28T02:00:23;102015.49;;;9.25;49.74
63306;BME280;50735;52.060;1.248;2023-05-28T02:02:55;102013.62;;;8.93;49.65
63306;BME280;50735;52.060;1.248;2023-05-28T02:05:27;102012.90;;;8.92;50.63
63306;BME280;50735;52.060;1.248;2023-05-28T02:07:58;102008.67;;;8.90;49.60
63306;BME280;50735;52.060;1.248;2023-05-28T02:10:30;102005.53;;;8.90;49.93
63306;BME280;50735;52.060;1.248;2023-05-28T02:13:02;102001.38;;;9.13;51.10
63306;BME280;50735;52.060;1.248;2023-05-28T02:15:35;102004.13;;;9.08;50.34
63306;BME280;50735;52.060;1.248;2023-05-28T02:18:07;101999.53;;;8.79;51.61
63306;BME280;50735;52.060;1.248;2023-05-28T02:20:39;101994.80;;;9.00;50.59
63306;BME280;50735;52.060;1.248;2023-05-28T02:23:11;101991.07;;;9.06;50.57
63306;BME280;50735;52.060;1.248;2023-05-28T02:25:43;101992.55;;;8.91;50.54
63306;BME280;50735;52.060;1.248;2023-05-28T02:28:15;101996.73;;;9.17;50.74
63306;BME280;50735;52.060;1.248;2023-05-28T02:30:47;101995.20;;;8.99;50.23
63306;BME280;50735;52.060;1.248;2023-05-28T02:33:19;101996.62;;;9.24;50.25
63306;BME280;50735;52.060;1.248;2023-05-28T02:35:51;101994.50;;;9.00;50.90
63306;BME280;50735;52.060;1.248;2023-05-28T02:38:22;101996.45;;;9.00;50.89
63306;BME280;50735;52.060;1.248;2023-05-28T02:40:55;102000.96;;;9.01;51.09
63306;BME280;50735;52.060;1.248;2023-05-28T02:43:27;102003.65;;;9.00;50.49
63306;BME280;50735;52.060;1.248;2023-05-28T02:45:59;102006.14;;;9.00;51.02
63306;BME280;50735;52.060;1.248;2023-05-28T02:48:31;102009.39;;;8.96;50.75
63306;BME280;50735;52.060;1.248;2023-05-28T02:51:04;102012.47;;;9.19;50.75
63306;BME280;50735;52.060;1.248;2023-05-28T02:53:35;102017.18;;;8.96;50.68
63306;BME280;50735;52.060;1.248;2023-05-28T02:56:07;102017.83;;;9.19;50.46
63306;BME280;50735;52.060;1.248;2023-05-28T02:58:39;102020.63;;;8.97;50.48
63306;BME280;50735;52.060;1.248;2023-05-28T03:01:11;102019.56;;;9.39;50.45
63306;BME280;50735;52.060;1.248;2023-05-28T03:03:43;102018.76;;;9.21;50.89
63306;BME280;50735;52.060;1.248;2023-05-28T03:06:15;102013.65;;;8.96;50.84
63306;BME280;50735;52.060;1.248;2023-05-28T03:08:47;102012.98;;;8.71;52.75
63306;BME280;50735;52.060;1.248;2023-05-28T03:11:19;102013.56;;;8.65;52.55
63306;BME280;50735;52.060;1.248;2023-05-28T03:13:51;102011.33;;;8.38;53.30
63306;BME280;50735;52.060;1.248;2023-05-28T03:16:23;102012.86;;;8.45;52.60
63306;BME280;50735;52.060;1.248;2023-05-28T03:18:54;102015.46;;;8.49;52.43
63306;BME280;50735;52.060;1.248;2023-05-28T03:21:26;102022.10;;;8.33;53.47
63306;BME280;50735;52.060;1.248;2023-05-28T03:23:58;102026.56;;;8.67;53.15
63306;BME280;50735;52.060;1.248;2023-05-28T03:26:30;102022.50;;;8.54;53.06
63306;BME280;50735;52.060;1.248;2023-05-28T03:29:02;102024.85;;;8.56;52.75
63306;BME280;50735;52.060;1.248;2023-05-28T03:31:43;102023.77;;;8.63;52.56
63306;BME280;50735;52.060;1.248;2023-05-28T03:34:15;102020.26;;;9.09;52.73
63306;BME280;50735;52.060;1.248;2023-05-28T03:36:47;102019.53;;;9.14;52.91
63306;BME280;50735;52.060;1.248;2023-05-28T03:39:19;102023.15;;;8.98;52.15
63306;BME280;50735;52.060;1.248;2023-05-28T03:41:51;102027.47;;;8.83;52.19
63306;BME280;50735;52.060;1.248;2023-05-28T03:44:22;102030.03;;;8.86;52.37
63306;BME280;50735;52.060;1.248;2023-05-28T03:46:54;102025.33;;;8.95;52.42
63306;BME280;50735;52.060;1.248;2023-05-28T03:49:26;102022.58;;;9.05;52.23
63306;BME280;50735;52.060;1.248;2023-05-28T03:51:58;102027.99;;;9.18;51.90
63306;BME280;50735;52.060;1.248;2023-05-28T03:54:30;102027.69;;;9.47;51.84
63306;BME280;50735;52.060;1.248;2023-05-28T03:57:02;102022.18;;;9.33;52.53
63306;BME280;50735;52.060;1.248;2023-05-28T03:59:34;102029.56;;;9.39;51.76
63306;BME280;50735;52.060;1.248;2023-05-28T04:02:06;102030.57;;;9.39;53.44
63306;BME280;50735;52.060;1.248;2023-05-28T04:04:38;102030.36;;;9.28;54.10
63306;BME280;50735;52.060;1.248;2023-05-28T04:07:09;102034.75;;;9.17;54.97
63306;BME280;50735;52.060;1.248;2023-05-28T04:09:41;102034.63;;;9.22;53.67
63306;BME280;50735;52.060;1.248;2023-05-28T04:12:13;102035.77;;;9.63;53.01
63306;BME280;50735;52.060;1.248;2023-05-28T04:14:45;102039.40;;;9.56;53.75
63306;BME280;50735;52.060;1.248;2023-05-28T04:17:17;102035.90;;;9.85;53.31
63306;BME280;50735;52.060;1.248;2023-05-28T04:19:49;102034.77;;;9.45;52.98
63306;BME280;50735;52.060;1.248;2023-05-28T04:22:21;102032.24;;;9.63;52.78
63306;BME280;50735;52.060;1.248;2023-05-28T04:24:52;102035.15;;;9.70;52.54
63306;BME280;50735;52.060;1.248;2023-05-28T04:27:24;102036.15;;;9.40;52.52
63306;BME280;50735;52.060;1.248;2023-05-28T04:29:56;102036.27;;;9.82;52.42
63306;BME280;50735;52.060;1.248;2023-05-28T04:32:28;102043.05;;;9.86;52.16
63306;BME280;50735;52.060;1.248;2023-05-28T04:35:00;102043.27;;;9.90;52.84
63306;BME280;50735;52.060;1.248;2023-05-28T04:37:32;102044.23;;;9.91;52.30
63306;BME280;50735;52.060;1.248;2023-05-28T04:40:05;102044.28;;;9.92;52.65
63306;BME280;50735;52.060;1.248;2023-05-28T04:42:37;102045.41;;;9.46;52.85
63306;BME280;50735;52.060;1.248;2023-05-28T04:45:10;102045.33;;;9.70;53.11
63306;BME280;50735;52.060;1.248;2023-05-28T04:47:42;102046.03;;;9.60;53.71
63306;BME280;50735;52.060;1.248;2023-05-28T04:50:13;102049.96;;;9.48;53.60
63306;BME280;50735;52.060;1.248;2023-05-28T04:52:45;102054.24;;;9.91;53.62
63306;BME280;50735;52.060;1.248;2023-05-28T04:55:17;102054.31;;;9.80;54.43
63306;BME280;50735;52.060;1.248;2023-05-28T04:57:49;102056.25;;;10.02;55.02
63306;BME280;50735;52.060;1.248;2023-05-28T05:00:21;102059.32;;;10.02;55.10
63306;BME280;50735;52.060;1.248;2023-05-28T05:02:52;102055.95;;;9.92;55.58
63306;BME280;50735;52.060;1.248;2023-05-28T05:05:24;102051.79;;;9.56;55.99
63306;BME280;50735;52.060;1.248;2023-05-28T05:07:56;102052.30;;;9.65;55.67
63306;BME280;50735;52.060;1.248;2023-05-28T05:10:28;102059.19;;;9.33;56.83
63306;BME280;50735;52.060;1.248;2023-05-28T05:13:00;102057.18;;;9.52;56.21
63306;BME280;50735;52.060;1.248;2023-05-28T05:15:33;102054.41;;;9.71;56.90
63306;BME280;50735;52.060;1.248;2023-05-28T05:18:05;102056.32;;;9.98;56.84
63306;BME280;50735;52.060;1.248;2023-05-28T05:20:37;102061.54;;;9.54;58.13
63306;BME280;50735;52.060;1.248;2023-05-28T05:23:08;102057.46;;;9.92;58.02
63306;BME280;50735;52.060;1.248;2023-05-28T05:25:40;102058.47;;;9.36;57.90
63306;BME280;50735;52.060;1.248;2023-05-28T05:28:12;102059.35;;;9.87;57.37
63306;BME280;50735;52.060;1.248;2023-05-28T05:30:45;102062.86;;;9.82;57.77
63306;BME280;50735;52.060;1.248;2023-05-28T05:33:16;102063.85;;;9.78;57.42
63306;BME280;50735;52.060;1.248;2023-05-28T05:35:48;102064.93;;;10.17;56.82
63306;BME280;50735;52.060;1.248;2023-05-28T05:38:20;102070.60;;;10.16;56.39
63306;BME280;50735;52.060;1.248;2023-05-28T05:40:52;102076.84;;;10.32;57.02
63306;BME280;50735;52.060;1.248;2023-05-28T05:43:24;102079.80;;;10.27;56.44
63306;BME280;50735;52.060;1.248;2023-05-28T05:45:56;102077.41;;;10.26;56.65
63306;BME280;50735;52.060;1.248;2023-05-28T05:48:28;102076.72;;;10.21;57.20
63306;BME280;50735;52.060;1.248;2023-05-28T05:51:00;102075.58;;;10.24;56.94
63306;BME280;50735;52.060;1.248;2023-05-28T05:53:32;102071.94;;;10.02;57.09
63306;BME280;50735;52.060;1.248;2023-05-28T05:56:04;102064.50;;;10.10;57.18
63306;BME280;50735;52.060;1.248;2023-05-28T05:58:36;102064.65;;;10.21;57.82
63306;BME280;50735;52.060;1.248;2023-05-28T06:01:09;102064.89;;;10.11;57.68
63306;BME280;50735;52.060;1.248;2023-05-28T06:03:40;102064.20;;;10.49;56.91
63306;BME280;50735;52.060;1.248;2023-05-28T06:06:12;102067.39;;;10.41;57.47
63306;BME280;50735;52.060;1.248;2023-05-28T06:08:44;102066.67;;;10.42;57.60
63306;BME280;50735;52.060;1.248;2023-05-28T06:11:16;102064.17;;;10.48;56.45
63306;BME280;50735;52.060;1.248;2023-05-28T06:13:47;102070.57;;;10.74;56.76
63306;BME280;50735;52.060;1.248;2023-05-28T06:16:19;102070.65;;;10.71;57.22
63306;BME280;50735;52.060;1.248;2023-05-28T06:18:51;102068.75;;;11.02;56.88
63306;BME280;50735;52.060;1.248;2023-05-28T06:21:23;102065.62;;;11.10;57.31
63306;BME280;50735;52.060;1.248;2023-05-28T06:23:55;102069.77;;;10.90;57.00
63306;BME280;50735;52.060;1.248;2023-05-28T06:26:27;102071.24;;;10.98;56.94
63306;BME280;50735;52.060;1.248;2023-05-28T06:28:59;102069.45;;;11.04;57.29
63306;BME280;50735;52.060;1.248;2023-05-28T06:31:30;102072.23;;;10.64;57.67
63306;BME280;50735;52.060;1.248;2023-05-28T06:34:02;102074.28;;;10.72;56.98
63306;BME280;50735;52.060;1.248;2023-05-28T06:36:34;102077.26;;;10.96;57.30
63306;BME280;50735;52.060;1.248;2023-05-28T06:39:07;102072.75;;;10.79;57.85
63306;BME280;50735;52.060;1.248;2023-05-28T06:41:38;102070.45;;;11.16;56.97
63306;BME280;50735;52.060;1.248;2023-05-28T06:44:11;102072.62;;;11.31;56.62
63306;BME280;50735;52.060;1.248;2023-05-28T06:46:42;102075.53;;;11.17;56.60
63306;BME280;50735;52.060;1.248;2023-05-28T06:49:14;102076.07;;;11.38;56.56
63306;BME280;50735;52.060;1.248;2023-05-28T06:51:46;102073.49;;;11.29;57.03
63306;BME280;50735;52.060;1.248;2023-05-28T06:54:18;102075.42;;;10.95;56.41
63306;BME280;50735;52.060;1.248;2023-05-28T06:56:50;102074.84;;;10.41;58.18
63306;BME280;50735;52.060;1.248;2023-05-28T06:59:22;102066.72;;;10.74;57.90
63306;BME280;50735;52.060;1.248;2023-05-28T07:01:54;102069.19;;;10.68;57.10
63306;BME280;50735;52.060;1.248;2023-05-28T07:04:25;102068.55;;;11.39;55.87
63306;BME280;50735;52.060;1.248;2023-05-28T07:06:57;102068.88;;;11.96;54.88
63306;BME280;50735;52.060;1.248;2023-05-28T07:09:29;102068.18;;;11.56;53.14
63306;BME280;50735;52.060;1.248;2023-05-28T07:12:01;102068.79;;;12.38;53.10
63306;BME280;50735;52.060;1.248;2023-05-28T07:14:33;102073.08;;;11.91;53.00
63306;BME280;50735;52.060;1.248;2023-05-28T07:17:04;102072.53;;;12.40;50.97
63306;BME280;50735;52.060;1.248;2023-05-28T07:19:36;102069.41;;;12.44;49.51
63306;BME280;50735;52.060;1.248;2023-05-28T07:22:08;102071.44;;;12.42;49.27
63306;BME280;50735;52.060;1.248;2023-05-28T07:24:40;102072.49;;;11.92;48.72
63306;BME280;50735;52.060;1.248;2023-05-28T07:27:11;102070.67;;;11.93;48.88
63306;BME280;50735;52.060;1.248;2023-05-28T07:29:44;102070.55;;;11.81;49.10
63306;BME280;50735;52.060;1.248;2023-05-28T07:32:15;102068.57;;;12.41;48.23
63306;BME280;50735;52.060;1.248;2023-05-28T07:34:47;102072.33;;;11.62;48.87
63306;BME280;50735;52.060;1.248;2023-05-28T07:37:18;102074.14;;;12.09;48.66
63306;BME280;50735;52.060;1.248;2023-05-28T07:39:51;102075.63;;;12.64;48.19
63306;BME280;50735;52.060;1.248;2023-05-28T07:42:22;102078.53;;;12.25;47.70
63306;BME280;50735;52.060;1.248;2023-05-28T07:44:54;102084.46;;;12.06;47.91
63306;BME280;50735;52.060;1.248;2023-05-28T07:47:26;102082.34;;;12.28;47.95
63306;BME280;50735;52.060;1.248;2023-05-28T07:49:58;102077.53;;;12.65;45.26
63306;BME280;50735;52.060;1.248;2023-05-28T07:52:30;102081.25;;;12.56;45.04
63306;BME280;50735;52.060;1.248;2023-05-28T07:55:02;102079.44;;;12.51;44.68
63306;BME280;50735;52.060;1.248;2023-05-28T07:57:34;102083.14;;;12.56;45.47
63306;BME280;50735;52.060;1.248;2023-05-28T08:00:07;102084.43;;;13.46;44.66
63306;BME280;50735;52.060;1.248;2023-05-28T08:02:39;102093.90;;;13.00;43.77
63306;BME280;50735;52.060;1.248;2023-05-28T08:05:11;102097.10;;;13.90;43.42
63306;BME280;50735;52.060;1.248;2023-05-28T08:07:43;102095.87;;;14.36;41.82
63306;BME280;50735;52.060;1.248;2023-05-28T08:10:14;102096.58;;;14.65;40.56
63306;BME280;50735;52.060;1.248;2023-05-28T08:12:46;102095.14;;;14.90;40.14
63306;BME280;50735;52.060;1.248;2023-05-28T08:15:18;102098.77;;;15.70;39.10
63306;BME280;50735;52.060;1.248;2023-05-28T08:17:50;102099.68;;;14.39;37.46
63306;BME280;50735;52.060;1.248;2023-05-28T08:20:22;102100.48;;;14.57;36.52
63306;BME280;50735;52.060;1.248;2023-05-28T08:22:53;102103.98;;;14.93;36.08
63306;BME280;50735;52.060;1.248;2023-05-28T08:25:25;102099.10;;;15.13;36.04
63306;BME280;50735;52.060;1.248;2023-05-28T08:27:57;102090.48;;;16.02;35.99
63306;BME280;50735;52.060;1.248;2023-05-28T08:30:29;102094.64;;;15.52;34.22
63306;BME280;50735;52.060;1.248;2023-05-28T08:33:00;102098.72;;;14.57;34.45
63306;BME280;50735;52.060;1.248;2023-05-28T08:35:32;102100.79;;;15.23;32.98
63306;BME280;50735;52.060;1.248;2023-05-28T08:38:04;102100.23;;;15.90;32.18
63306;BME280;50735;52.060;1.248;2023-05-28T08:40:39;102097.99;;;15.54;33.38
63306;BME280;50735;52.060;1.248;2023-05-28T08:43:11;102091.65;;;17.11;32.10
63306;BME280;50735;52.060;1.248;2023-05-28T08:45:43;102090.85;;;16.24;31.13
63306;BME280;50735;52.060;1.248;2023-05-28T08:48:15;102091.70;;;15.53;30.70
63306;BME280;50735;52.060;1.248;2023-05-28T08:50:48;102091.29;;;15.95;30.11
63306;BME280;50735;52.060;1.248;2023-05-28T08:53:22;102082.60;;;16.47;30.47
63306;BME280;50735;52.060;1.248;2023-05-28T08:55:55;102086.81;;;16.50;28.51
63306;BME280;50735;52.060;1.248;2023-05-28T08:58:27;102086.84;;;16.81;28.27
63306;BME280;50735;52.060;1.248;2023-05-28T09:00:58;102088.20;;;16.72;27.33
63306;BME280;50735;52.060;1.248;2023-05-28T09:03:30;102087.46;;;17.57;26.22
63306;BME280;50735;52.060;1.248;2023-05-28T09:06:03;102088.51;;;17.46;25.04
63306;BME280;50735;52.060;1.248;2023-05-28T09:08:35;102092.44;;;17.18;23.18
63306;BME280;50735;52.060;1.248;2023-05-28T09:11:10;102086.96;;;17.00;23.12
63306;BME280;50735;52.060;1.248;2023-05-28T09:13:42;102084.33;;;17.92;22.57
63306;BME280;50735;52.060;1.248;2023-05-28T09:16:19;102079.09;;;17.58;22.33
63306;BME280;50735;52.060;1.248;2023-05-28T09:19:01;102077.79;;;18.46;23.74
63306;BME280;50735;52.060;1.248;2023-05-28T09:21:34;102081.78;;;18.00;23.35
63306;BME280;50735;52.060;1.248;2023-05-28T09:24:05;102085.21;;;17.40;23.16
63306;BME280;50735;52.060;1.248;2023-05-28T09:26:38;102088.32;;;16.63;23.59
63306;BME280;50735;52.060;1.248;2023-05-28T09:29:11;102086.52;;;18.17;23.61
63306;BME280;50735;52.060;1.248;2023-05-28T09:31:43;102089.28;;;18.81;24.31
63306;BME280;50735;52.060;1.248;2023-05-28T09:34:18;102096.81;;;19.85;23.64
63306;BME280;50735;52.060;1.248;2023-05-28T09:36:51;102095.62;;;19.42;22.83
63306;BME280;50735;52.060;1.248;2023-05-28T09:39:24;102098.73;;;18.64;22.39
63306;BME280;50735;52.060;1.248;2023-05-28T09:41:59;102098.90;;;18.97;22.88
63306;BME280;50735;52.060;1.248;2023-05-28T09:44:32;102093.89;;;18.93;21.53
63306;BME280;50735;52.060;1.248;2023-05-28T09:47:12;102091.97;;;18.84;21.15
63306;BME280;50735;52.060;1.248;2023-05-28T09:49:46;102092.57;;;19.58;22.04
63306;BME280;50735;52.060;1.248;2023-05-28T09:52:19;102094.23;;;18.94;23.11
63306;BME280;50735;52.060;1.248;2023-05-28T09:54:54;102091.13;;;18.70;23.91
63306;BME280;50735;52.060;1.248;2023-05-28T09:57:29;102093.38;;;18.39;23.19
63306;BME280;50735;52.060;1.248;2023-05-28T10:00:02;102098.01;;;19.10;23.15
63306;BME280;50735;52.060;1.248;2023-05-28T10:02:39;102092.81;;;18.55;23.19
63306;BME280;50735;52.060;1.248;2023-05-28T10:05:16;102097.12;;;18.63;22.47
63306;BME280;50735;52.060;1.248;2023-05-28T10:07:52;102097.48;;;18.69;22.40
63306;BME280;50735;52.060;1.248;2023-05-28T10:10:26;102096.21;;;18.74;23.02
63306;BME280;50735;52.060;1.248;2023-05-28T10:13:00;102095.10;;;18.51;23.46
63306;BME280;50735;52.060;1.248;2023-05-28T10:15:33;102097.45;;;19.27;21.63
63306;BME280;50735;52.060;1.248;2023-05-28T10:18:06;102093.15;;;19.02;22.31
63306;BME280;50735;52.060;1.248;2023-05-28T10:20:39;102096.14;;;19.08;22.64
63306;BME280;50735;52.060;1.248;2023-05-28T10:23:12;102093.85;;;20.05;21.92
63306;BME280;50735;52.060;1.248;2023-05-28T10:25:44;102094.39;;;19.80;20.39
63306;BME280;50735;52.060;1.248;2023-05-28T10:28:19;102099.53;;;20.20;21.85
63306;BME280;50735;52.060;1.248;2023-05-28T10:31:00;102100.30;;;19.44;21.91
63306;BME280;50735;52.060;1.248;2023-05-28T10:33:37;102105.76;;;19.47;22.64
63306;BME280;50735;52.060;1.248;2023-05-28T10:36:10;102107.20;;;19.67;21.83
63306;BME280;50735;52.060;1.248;2023-05-28T10:38:43;102099.60;;;20.27;20.97
63306;BME280;50735;52.060;1.248;2023-05-28T10:41:21;102097.01;;;20.83;20.76
63306;BME280;50735;52.060;1.248;2023-05-28T10:43:52;102108.02;;;19.54;20.56
63306;BME280;50735;52.060;1.248;2023-05-28T10:46:35;102106.61;;;19.22;21.44
63306;BME280;50735;52.060;1.248;2023-05-28T10:49:12;102109.11;;;19.71;21.93
63306;BME280;50735;52.060;1.248;2023-05-28T10:51:55;102107.56;;;20.39;21.38
63306;BME280;50735;52.060;1.248;2023-05-28T10:54:43;102102.19;;;20.34;21.80
63306;BME280;50735;52.060;1.248;2023-05-28T10:57:16;102100.03;;;20.57;20.62
63306;BME280;50735;52.060;1.248;2023-05-28T10:59:49;102091.92;;;20.73;21.14
63306;BME280;50735;52.060;1.248;2023-05-28T11:02:22;102088.92;;;21.54;20.89
63306;BME280;50735;52.060;1.248;2023-05-28T11:04:55;102093.30;;;20.97;20.61
63306;BME280;50735;52.060;1.248;2023-05-28T11:07:29;102087.75;;;21.16;20.35
63306;BME280;50735;52.060;1.248;2023-05-28T11:10:03;102092.48;;;20.48;20.33
63306;BME280;50735;52.060;1.248;2023-05-28T11:12:36;102088.15;;;20.52;20.16
63306;BME280;50735;52.060;1.248;2023-05-28T11:15:10;102089.47;;;21.74;21.41
63306;BME280;50735;52.060;1.248;2023-05-28T11:17:43;102090.27;;;21.82;19.71
63306;BME280;50735;52.060;1.248;2023-05-28T11:20:17;102094.08;;;21.73;19.63
63306;BME280;50735;52.060;1.248;2023-05-28T11:22:50;102097.28;;;21.22;19.77
63306;BME280;50735;52.060;1.248;2023-05-28T11:25:23;102097.62;;;21.32;19.41
63306;BME280;50735;52.060;1.248;2023-05-28T11:27:55;102102.40;;;20.16;18.49
63306;BME280;50735;52.060;1.248;2023-05-28T11:30:26;102093.77;;;20.31;19.25
63306;BME280;50735;52.060;1.248;2023-05-28T11:33:02;102097.83;;;21.09;18.64
63306;BME280;50735;52.060;1.248;2023-05-28T11:35:34;102098.96;;;21.41;19.20
63306;BME280;50735;52.060;1.248;2023-05-28T11:38:06;102101.05;;;21.04;18.89
63306;BME280;50735;52.060;1.248;2023-05-28T11:40:38;102098.98;;;21.18;18.96
63306;BME280;50735;52.060;1.248;2023-05-28T11:43:09;102091.76;;;21.53;18.87
63306;BME280;50735;52.060;1.248;2023-05-28T11:45:41;102086.40;;;21.64;19.64
63306;BME280;50735;52.060;1.248;2023-05-28T11:48:13;102090.74;;;20.86;20.78
63306;BME280;50735;52.060;1.248;2023-05-28T11:50:46;102089.35;;;21.00;19.49
63306;BME280;50735;52.060;1.248;2023-05-28T11:53:17;102093.85;;;22.02;18.78
63306;BME280;50735;52.060;1.248;2023-05-28T11:55:50;102094.86;;;21.52;19.29
63306;BME280;50735;52.060;1.248;2023-05-28T11:58:29;102095.92;;;21.58;18.89
63306;BME280;50735;52.060;1.248;2023-05-28T12:01:00;102100.50;;;21.58;18.95
63306;BME280;50735;52.060;1.248;2023-05-28T12:03:32;102097.49;;;21.50;18.68
63306;BME280;50735;52.060;1.248;2023-05-28T12:06:04;102102.81;;;20.95;18.41
63306;BME280;50735;52.060;1.248;2023-05-28T12:08:38;102099.81;;;21.89;17.58
63306;BME280;50735;52.060;1.248;2023-05-28T12:11:10;102103.32;;;21.42;18.53
63306;BME280;50735;52.060;1.248;2023-05-28T12:13:42;102105.78;;;22.06;18.27
63306;BME280;50735;52.060;1.248;2023-05-28T12:16:14;102105.74;;;19.46;19.01
63306;BME280;50735;52.060;1.248;2023-05-28T12:18:45;102100.18;;;20.34;19.33
63306;BME280;50735;52.060;1.248;2023-05-28T12:21:18;102091.56;;;20.99;18.47
63306;BME280;50735;52.060;1.248;2023-05-28T12:23:50;102094.78;;;20.80;18.98
63306;BME280;50735;52.060;1.248;2023-05-28T12:26:21;102091.67;;;21.10;19.37
63306;BME280;50735;52.060;1.248;2023-05-28T12:28:53;102090.81;;;20.59;19.04
63306;BME280;50735;52.060;1.248;2023-05-28T12:31:27;102086.64;;;21.40;20.44
63306;BME280;50735;52.060;1.248;2023-05-28T12:33:59;102092.81;;;20.23;21.42
63306;BME280;50735;52.060;1.248;2023-05-28T12:36:31;102088.12;;;20.32;20.97
63306;BME280;50735;52.060;1.248;2023-05-28T12:39:02;102091.87;;;19.96;21.29
63306;BME280;50735;52.060;1.248;2023-05-28T12:41:34;102089.85;;;20.91;21.34
63306;BME280;50735;52.060;1.248;2023-05-28T12:44:06;102091.58;;;20.70;21.26
63306;BME280;50735;52.060;1.248;2023-05-28T12:46:38;102090.00;;;20.58;21.17
63306;BME280;50735;52.060;1.248;2023-05-28T12:49:10;102088.61;;;20.91;20.58
63306;BME280;50735;52.060;1.248;2023-05-28T12:51:42;102086.63;;;20.96;20.13
63306;BME280;50735;52.060;1.248;2023-05-28T12:54:14;102090.48;;;20.47;19.79
63306;BME280;50735;52.060;1.248;2023-05-28T12:56:45;102092.07;;;20.74;20.28
63306;BME280;50735;52.060;1.248;2023-05-28T12:59:21;102095.22;;;21.49;21.03
63306;BME280;50735;52.060;1.248;2023-05-28T13:01:53;102091.19;;;20.84;20.40
63306;BME280;50735;52.060;1.248;2023-05-28T13:04:26;102087.89;;;21.74;19.98
63306;BME280;50735;52.060;1.248;2023-05-28T13:06:57;102089.12;;;21.78;19.26
63306;BME280;50735;52.060;1.248;2023-05-28T13:09:29;102091.28;;;20.74;20.21
63306;BME280;50735;52.060;1.248;2023-05-28T13:12:01;102089.40;;;21.18;20.70
63306;BME280;50735;52.060;1.248;2023-05-28T13:14:32;102084.21;;;21.45;19.44
63306;BME280;50735;52.060;1.248;2023-05-28T13:17:04;102087.24;;;20.60;19.75
63306;BME280;50735;52.060;1.248;2023-05-28T13:19:36;102084.48;;;20.74;19.69